createdAt,value
2022-10-09T00:02:59.223Z,4.93
2022-10-09T00:08:00.882Z,5.65
2022-10-09T00:13:02.557Z,5.35
2022-10-09T00:18:04.318Z,5.75
2022-10-09T00:23:06.744Z,5.65
2022-10-09T00:28:08.489Z,5.47
2022-10-09T00:33:10.228Z,6.00
2022-10-09T00:38:12.412Z,6.07
2022-10-09T00:43:37.576Z,5.18
2022-10-09T00:48:39.286Z,5.68
2022-10-09T00:53:41.393Z,8.85
2022-10-09T00:58:43.179Z,10.18
2022-10-09T01:03:44.833Z,10.88
2022-10-09T01:08:49.466Z,12.13
2022-10-09T01:14:05.108Z,8.13
2022-10-09T01:19:22.599Z,6.65
2022-10-09T01:24:47.945Z,6.10
2022-10-09T01:29:55.434Z,5.82
2022-10-09T01:34:57.917Z,6.45
2022-10-09T01:40:00.737Z,4.93
2022-10-09T01:45:02.444Z,4.82
2022-10-09T01:50:14.836Z,5.18
2022-10-09T01:55:22.550Z,5.45
2022-10-09T02:00:24.718Z,4.70
2022-10-09T02:05:29.040Z,4.35
2022-10-09T02:10:34.420Z,3.92
2022-10-09T02:16:00.614Z,3.95
2022-10-09T02:21:13.172Z,4.30
2022-10-09T02:26:15.587Z,4.50
2022-10-09T02:31:23.776Z,4.28
2022-10-09T02:36:27.121Z,5.05
2022-10-09T02:41:28.937Z,4.30
2022-10-09T02:46:30.732Z,4.20
2022-10-09T02:51:32.630Z,4.57
2022-10-09T02:56:38.069Z,4.03
2022-10-09T03:01:40.762Z,4.50
2022-10-09T03:06:42.477Z,4.57
2022-10-09T03:11:44.135Z,4.18
2022-10-09T03:16:45.803Z,4.25
2022-10-09T03:21:47.481Z,4.30
2022-10-09T03:26:49.201Z,4.40
2022-10-09T03:31:53.118Z,4.00
2022-10-09T03:36:55.204Z,3.92
2022-10-09T03:41:56.916Z,4.00
2022-10-09T03:46:59.353Z,3.95
2022-10-09T03:52:01.088Z,4.50
2022-10-09T03:57:02.785Z,4.20
2022-10-09T04:02:04.511Z,3.35
2022-10-09T04:07:06.167Z,3.55
2022-10-09T04:12:08.041Z,4.47
2022-10-09T04:17:09.796Z,3.92
2022-10-09T04:22:11.459Z,4.10
2022-10-09T04:27:13.184Z,4.07
2022-10-09T04:32:14.858Z,4.18
2022-10-09T04:37:16.529Z,4.38
2022-10-09T04:42:18.197Z,4.03
2022-10-09T04:47:19.863Z,4.47
2022-10-09T04:52:21.536Z,5.03
2022-10-09T04:57:23.196Z,5.07
2022-10-09T05:02:24.875Z,5.55
2022-10-09T05:07:26.657Z,5.85
2022-10-09T05:12:28.304Z,6.13
2022-10-09T05:17:30.016Z,6.10
2022-10-09T05:22:31.844Z,6.28
2022-10-09T05:27:33.497Z,6.20
2022-10-09T05:32:35.228Z,6.65
2022-10-09T05:37:36.879Z,6.47
2022-10-09T05:42:38.544Z,7.03
2022-10-09T05:47:40.191Z,7.75
2022-10-09T05:52:41.866Z,8.05
2022-10-09T05:57:43.557Z,7.15
2022-10-09T06:02:45.525Z,7.32
2022-10-09T06:07:47.742Z,7.05
2022-10-09T06:12:49.720Z,7.88
2022-10-09T06:17:51.557Z,7.35
2022-10-09T06:22:53.222Z,7.05
2022-10-09T06:27:54.880Z,7.63
2022-10-09T06:32:56.631Z,7.53
2022-10-09T06:37:58.286Z,7.63
2022-10-09T06:43:00.367Z,7.43
2022-10-09T06:48:02.035Z,7.15
2022-10-09T06:53:05.407Z,7.28
2022-10-09T06:58:07.257Z,6.97
2022-10-09T07:03:09.048Z,6.25
2022-10-09T07:08:10.844Z,6.10
2022-10-09T07:13:12.509Z,6.43
2022-10-09T07:18:15.984Z,5.53
2022-10-09T07:23:17.741Z,5.82
2022-10-09T07:28:19.480Z,5.47
2022-10-09T07:33:21.180Z,5.18
2022-10-09T07:38:24.639Z,4.95
2022-10-09T07:43:26.344Z,4.38
2022-10-09T07:48:28.872Z,3.83
2022-10-09T07:53:33.789Z,4.30
2022-10-09T07:58:37.528Z,3.30
2022-10-09T08:03:39.240Z,3.28
2022-10-09T08:08:41.546Z,2.08
2022-10-09T08:13:44.641Z,1.92
2022-10-09T08:18:46.891Z,2.33
2022-10-09T08:23:54.107Z,2.50
2022-10-09T08:28:58.640Z,2.38
2022-10-09T08:34:02.734Z,1.90
2022-10-09T08:39:04.553Z,2.63
2022-10-09T08:44:23.861Z,1.92
2022-10-09T08:49:48.475Z,1.92
2022-10-09T08:54:51.490Z,1.67
2022-10-09T08:59:53.168Z,2.10
2022-10-09T09:05:20.218Z,2.33
2022-10-09T09:10:42.768Z,1.77
2022-10-09T09:15:52.547Z,2.50
2022-10-09T09:20:56.406Z,2.63
2022-10-09T09:25:59.671Z,2.20
2022-10-09T09:31:12.798Z,2.45
2022-10-09T09:36:22.777Z,2.50
2022-10-09T09:41:24.940Z,2.70
2022-10-09T09:46:30.489Z,2.72
2022-10-09T09:51:32.897Z,2.00
2022-10-09T09:56:59.924Z,1.98
2022-10-09T10:02:20.734Z,1.75
2022-10-09T10:07:34.888Z,1.65
2022-10-09T10:12:41.879Z,2.28
2022-10-09T10:17:43.629Z,2.50
2022-10-09T10:22:53.952Z,2.63
2022-10-09T10:28:02.212Z,2.33
2022-10-09T10:33:26.502Z,2.65
2022-10-09T10:38:43.975Z,1.58
2022-10-09T10:43:54.469Z,2.03
2022-10-09T10:48:59.589Z,2.00
2022-10-09T10:54:22.905Z,2.33
2022-10-09T10:59:49.693Z,1.65
2022-10-09T11:05:34.068Z,1.77
2022-10-09T11:10:54.060Z,1.85
2022-10-09T11:16:49.328Z,1.77
2022-10-09T11:21:59.827Z,1.85
2022-10-09T11:27:24.067Z,1.75
2022-10-09T11:32:38.285Z,1.67
2022-10-09T11:37:43.477Z,1.48
2022-10-09T11:42:56.854Z,1.92
2022-10-09T11:48:06.514Z,1.33
2022-10-09T11:53:14.910Z,1.17
2022-10-09T11:58:19.359Z,1.48
2022-10-09T12:03:30.171Z,1.92
2022-10-09T12:08:32.085Z,1.20
2022-10-09T12:13:36.748Z,1.60
2022-10-09T12:18:46.933Z,1.73
2022-10-09T12:23:50.429Z,1.50
2022-10-09T12:28:58.744Z,1.55
2022-10-09T12:34:18.612Z,2.20
2022-10-09T12:39:23.137Z,1.42
2022-10-09T12:44:34.609Z,1.67
2022-10-09T12:49:36.359Z,1.88
2022-10-09T12:54:43.549Z,2.08
2022-10-09T12:59:46.982Z,2.00
2022-10-09T13:04:57.858Z,1.48
2022-10-09T13:10:02.883Z,1.60
2022-10-09T13:15:24.230Z,1.63
2022-10-09T13:20:32.608Z,1.80
2022-10-09T13:25:37.471Z,1.60
2022-10-09T13:30:39.226Z,1.55
2022-10-09T13:35:41.510Z,1.85
2022-10-09T13:40:44.368Z,1.73
2022-10-09T13:45:46.107Z,1.35
2022-10-09T13:50:47.830Z,1.95
2022-10-09T13:55:49.501Z,1.50
2022-10-09T14:00:51.164Z,1.55
2022-10-09T14:06:01.593Z,1.60
2022-10-09T14:11:03.349Z,1.08
2022-10-09T14:16:06.513Z,2.13
2022-10-09T14:21:15.251Z,1.27
2022-10-09T14:26:17.437Z,2.10
2022-10-09T14:31:19.326Z,2.25
2022-10-09T14:36:21.016Z,1.80
2022-10-09T14:41:22.957Z,2.47
2022-10-09T14:46:26.787Z,2.60
2022-10-09T14:51:28.479Z,2.00
2022-10-09T14:56:30.238Z,2.33
2022-10-09T15:01:33.061Z,1.83
2022-10-09T15:06:34.845Z,2.20
2022-10-09T15:11:37.115Z,2.00
2022-10-09T15:16:38.871Z,2.30
2022-10-09T15:21:41.372Z,1.80
2022-10-09T15:26:43.124Z,2.42
2022-10-09T15:31:44.818Z,2.67
2022-10-09T15:36:46.974Z,2.20
2022-10-09T15:41:48.644Z,1.67
2022-10-09T15:46:50.443Z,1.95
2022-10-09T15:51:52.196Z,1.60
2022-10-09T15:56:54.721Z,2.05
2022-10-09T16:01:56.432Z,1.83
2022-10-09T16:06:58.340Z,3.47
2022-10-09T16:12:00.489Z,3.45
2022-10-09T16:17:02.164Z,2.40
2022-10-09T16:22:03.876Z,2.60
2022-10-09T16:27:05.545Z,2.15
2022-10-09T16:32:07.300Z,2.60
2022-10-09T16:37:09.026Z,3.17
2022-10-09T16:42:10.848Z,3.38
2022-10-09T16:47:14.071Z,3.25
2022-10-09T16:52:15.794Z,2.92
2022-10-09T16:57:18.289Z,18.20
2022-10-09T17:02:19.963Z,5.97
2022-10-09T17:07:22.974Z,4.63
2022-10-09T17:12:24.669Z,3.45
2022-10-09T17:17:26.399Z,1.98
2022-10-09T17:22:28.074Z,2.63
2022-10-09T17:27:29.725Z,3.10
2022-10-09T17:32:31.381Z,4.22
2022-10-09T17:37:33.070Z,3.92
2022-10-09T17:42:34.992Z,5.30
2022-10-09T17:47:36.703Z,6.80
2022-10-09T17:52:38.364Z,8.23
2022-10-09T17:57:40.158Z,7.70
2022-10-09T18:02:41.880Z,6.32
2022-10-09T18:07:43.592Z,5.88
2022-10-09T18:12:45.254Z,6.60
2022-10-09T18:17:47.019Z,6.32
2022-10-09T18:22:48.765Z,6.07
2022-10-09T18:27:50.696Z,6.93
2022-10-09T18:32:52.758Z,6.85
2022-10-09T18:37:54.659Z,6.75
2022-10-09T18:42:56.317Z,7.65
2022-10-09T18:47:59.490Z,8.30
2022-10-09T18:53:01.234Z,7.20
2022-10-09T18:58:04.917Z,7.72
2022-10-09T19:03:06.921Z,6.93
2022-10-09T19:08:08.593Z,7.97
2022-10-09T19:13:10.309Z,8.07
2022-10-09T19:18:11.963Z,8.10
2022-10-09T19:23:15.230Z,7.32
2022-10-09T19:28:17.913Z,8.30
2022-10-09T19:33:19.669Z,7.00
2022-10-09T19:38:22.842Z,8.82
2022-10-09T19:43:25.510Z,8.82
2022-10-09T19:48:27.172Z,7.20
2022-10-09T19:53:28.845Z,8.88
2022-10-09T19:58:30.546Z,8.98
2022-10-09T20:03:32.259Z,8.93
2022-10-09T20:08:34.444Z,8.43
2022-10-09T20:13:38.257Z,8.55
2022-10-09T20:18:42.379Z,7.43
2022-10-09T20:23:44.885Z,8.23
2022-10-09T20:28:48.309Z,8.48
2022-10-09T20:33:51.140Z,7.50
2022-10-09T20:38:57.837Z,8.02
2022-10-09T20:44:01.380Z,6.38
2022-10-09T20:49:05.672Z,6.80
2022-10-09T20:54:13.818Z,6.75
2022-10-09T20:59:17.064Z,7.13
2022-10-09T21:04:18.732Z,6.40
2022-10-09T21:09:20.462Z,6.30
2022-10-09T21:14:22.173Z,6.55
2022-10-09T21:19:24.101Z,6.05
2022-10-09T21:24:26.083Z,8.18
2022-10-09T21:29:27.826Z,7.50
2022-10-09T21:34:29.512Z,6.07
2022-10-09T21:39:31.617Z,6.72
2022-10-09T21:44:33.272Z,7.05
2022-10-09T21:49:34.941Z,6.68
2022-10-09T21:54:36.715Z,6.05
2022-10-09T21:59:38.459Z,7.13
2022-10-09T22:04:40.122Z,6.38
2022-10-09T22:09:41.852Z,5.88
2022-10-09T22:14:43.804Z,5.30
2022-10-09T22:19:45.490Z,5.25
2022-10-09T22:24:47.149Z,4.93
2022-10-09T22:29:48.804Z,5.13
2022-10-09T22:34:52.087Z,6.32
2022-10-09T22:39:53.756Z,5.60
2022-10-09T22:44:55.436Z,5.55
2022-10-09T22:49:57.481Z,5.63
2022-10-09T22:55:00.606Z,4.95
2022-10-09T23:00:02.284Z,5.60
2022-10-09T23:05:04.342Z,5.13
2022-10-09T23:10:06.174Z,4.20
2022-10-09T23:15:08.123Z,4.47
2022-10-09T23:20:10.523Z,5.10
2022-10-09T23:25:12.260Z,4.90
2022-10-09T23:30:13.939Z,4.63
2022-10-09T23:35:15.650Z,4.18
2022-10-09T23:40:17.380Z,3.80
2022-10-09T23:45:19.055Z,4.40
2022-10-09T23:50:20.736Z,4.63
2022-10-09T23:55:22.410Z,5.15
